createdAt,value
2018-06-10T00:00:50.742Z,19.19
2018-06-10T00:01:59.634Z,19.2
2018-06-10T00:03:08.521Z,19.11
2018-06-10T00:04:17.150Z,19.12
2018-06-10T00:05:25.775Z,19.15
2018-06-10T00:06:34.402Z,19.15
2018-06-10T00:07:43.286Z,19.26
2018-06-10T00:08:52.170Z,19.15
2018-06-10T00:10:00.797Z,19.2
2018-06-10T00:11:09.422Z,19.16
2018-06-10T00:12:18.305Z,19.05
2018-06-10T00:13:26.932Z,19.07
2018-06-10T00:14:35.560Z,19.11
2018-06-10T00:15:44.189Z,19.07
2018-06-10T00:16:52.808Z,19.09
2018-06-10T00:18:01.438Z,19.08
2018-06-10T00:19:10.064Z,18.98
2018-06-10T00:20:18.690Z,19.05
2018-06-10T00:21:27.318Z,18.97
2018-06-10T00:22:36.209Z,19.04
2018-06-10T00:23:44.830Z,18.96
2018-06-10T00:24:53.454Z,19.05
2018-06-10T00:26:02.081Z,18.97
2018-06-10T00:27:10.707Z,18.94
2018-06-10T00:28:19.332Z,18.98
2018-06-10T00:29:27.958Z,18.97
2018-06-10T00:30:36.843Z,18.94
2018-06-10T00:31:45.471Z,18.97
2018-06-10T00:32:54.094Z,18.91
2018-06-10T00:34:02.721Z,18.92
2018-06-10T00:35:11.348Z,18.88
2018-06-10T00:36:19.974Z,18.91
2018-06-10T00:37:28.860Z,18.83
2018-06-10T00:38:37.490Z,18.79
2018-06-10T00:39:46.116Z,18.74
2018-06-10T00:40:54.745Z,18.76
2018-06-10T00:42:03.630Z,18.74
2018-06-10T00:43:12.252Z,18.68
2018-06-10T00:44:20.876Z,18.76
2018-06-10T00:45:29.512Z,18.68
2018-06-10T00:46:38.139Z,18.63
2018-06-10T00:47:47.028Z,18.67
2018-06-10T00:48:55.653Z,18.66
2018-06-10T00:50:04.555Z,18.66
2018-06-10T00:51:13.443Z,18.58
2018-06-10T00:52:22.331Z,18.73
2018-06-10T00:53:30.958Z,18.61
2018-06-10T00:54:39.583Z,18.63
2018-06-10T00:55:48.208Z,18.66
2018-06-10T00:56:56.832Z,18.63
2018-06-10T00:58:05.454Z,18.57
2018-06-10T00:59:14.081Z,18.6
2018-06-10T01:00:22.981Z,18.6
2018-06-10T01:01:31.609Z,18.6
2018-06-10T01:02:40.234Z,18.58
2018-06-10T01:03:48.859Z,18.57
2018-06-10T01:04:57.485Z,18.52
2018-06-10T01:06:06.110Z,18.63
2018-06-10T01:07:15.000Z,18.58
2018-06-10T01:08:23.620Z,18.58
2018-06-10T01:09:32.248Z,18.51
2018-06-10T01:10:40.875Z,18.55
2018-06-10T01:11:49.502Z,18.61
2018-06-10T01:12:58.128Z,18.64
2018-06-10T01:14:06.755Z,18.63
2018-06-10T01:15:15.381Z,18.63
2018-06-10T01:16:24.006Z,18.7
2018-06-10T01:17:32.630Z,18.68
2018-06-10T01:18:41.254Z,18.67
2018-06-10T01:19:49.878Z,18.7
2018-06-10T01:20:59.031Z,18.66
2018-06-10T01:22:07.662Z,18.81
2018-06-10T01:23:16.810Z,18.79
2018-06-10T01:24:25.435Z,18.79
2018-06-10T01:25:34.061Z,18.73
2018-06-10T01:26:42.688Z,18.76
2018-06-10T01:27:51.312Z,18.71
2018-06-10T01:29:00.204Z,18.71
2018-06-10T01:30:08.831Z,18.73
2018-06-10T01:31:17.458Z,18.74
2018-06-10T01:32:26.083Z,18.76
2018-06-10T01:33:34.716Z,18.7
2018-06-10T01:34:43.342Z,18.74
2018-06-10T01:35:51.967Z,18.73
2018-06-10T01:37:00.593Z,18.74
2018-06-10T01:38:09.221Z,18.71
2018-06-10T01:39:17.853Z,18.73
2018-06-10T01:40:26.484Z,18.79
2018-06-10T01:41:38.141Z,18.78
2018-06-10T01:42:47.028Z,18.74
2018-06-10T01:43:55.678Z,18.71
2018-06-10T01:45:04.318Z,18.73
2018-06-10T01:46:12.972Z,18.68
2018-06-10T01:47:21.614Z,18.67
2018-06-10T01:48:30.272Z,18.68
2018-06-10T01:49:38.910Z,18.67
2018-06-10T01:50:47.545Z,18.66
2018-06-10T01:51:56.180Z,18.71
2018-06-10T01:53:04.838Z,18.61
2018-06-10T01:54:13.481Z,18.61
2018-06-10T01:55:22.123Z,18.55
2018-06-10T01:56:30.772Z,18.61
2018-06-10T01:57:39.687Z,18.55
2018-06-10T01:58:48.339Z,18.58
2018-06-10T01:59:57.245Z,18.6
2018-06-10T02:01:05.893Z,18.55
2018-06-10T02:02:14.536Z,18.55
2018-06-10T02:03:23.188Z,18.6
2018-06-10T02:04:32.103Z,18.6
2018-06-10T02:05:40.753Z,18.61
2018-06-10T02:06:49.402Z,18.64
2018-06-10T02:07:58.052Z,18.58
2018-06-10T02:09:06.698Z,18.6
2018-06-10T02:10:15.875Z,18.61
2018-06-10T02:11:24.523Z,18.55
2018-06-10T02:12:33.429Z,18.58
2018-06-10T02:13:42.081Z,18.64
2018-06-10T02:14:50.733Z,18.6
2018-06-10T02:15:59.386Z,18.6
2018-06-10T02:17:08.555Z,18.52
2018-06-10T02:18:17.202Z,18.53
2018-06-10T02:19:26.113Z,18.51
2018-06-10T02:20:34.770Z,18.51
2018-06-10T02:21:43.413Z,18.51
2018-06-10T02:22:52.061Z,18.53
2018-06-10T02:24:00.711Z,18.57
2018-06-10T02:25:09.361Z,18.58
2018-06-10T02:26:18.008Z,18.67
2018-06-10T02:27:26.922Z,18.52
2018-06-10T02:28:35.566Z,18.55
2018-06-10T02:29:44.221Z,18.53
2018-06-10T02:30:52.866Z,18.57
2018-06-10T02:32:01.516Z,18.51
2018-06-10T02:33:10.162Z,18.58
2018-06-10T02:34:18.813Z,18.53
2018-06-10T02:35:27.467Z,18.49
2018-06-10T02:36:36.385Z,18.64
2018-06-10T02:37:45.033Z,18.57
2018-06-10T02:38:53.676Z,18.57
2018-06-10T02:40:02.333Z,18.53
2018-06-10T02:41:11.257Z,18.55
2018-06-10T02:42:20.181Z,18.52
2018-06-10T02:43:28.831Z,18.53
2018-06-10T02:44:37.488Z,18.52
2018-06-10T02:45:46.140Z,18.55
2018-06-10T02:46:55.052Z,18.58
2018-06-10T02:48:03.975Z,18.58
2018-06-10T02:49:13.417Z,18.51
2018-06-10T02:50:22.066Z,18.58
2018-06-10T02:51:30.986Z,18.58
2018-06-10T02:52:39.633Z,18.53
2018-06-10T02:53:48.281Z,18.53
2018-06-10T02:54:57.204Z,18.53
2018-06-10T02:56:05.852Z,18.52
2018-06-10T02:57:14.515Z,18.53
2018-06-10T02:58:23.162Z,18.58
2018-06-10T02:59:31.814Z,18.51
2018-06-10T03:00:40.456Z,18.6
2018-06-10T03:01:49.117Z,18.52
2018-06-10T03:02:58.032Z,18.51
2018-06-10T03:04:06.959Z,18.51
2018-06-10T03:05:15.608Z,18.53
2018-06-10T03:06:24.267Z,18.51
2018-06-10T03:07:32.915Z,18.53
2018-06-10T03:08:41.567Z,18.53
2018-06-10T03:09:50.212Z,18.55
2018-06-10T03:10:58.864Z,18.42
2018-06-10T03:12:07.522Z,18.48
2018-06-10T03:13:16.166Z,18.49
2018-06-10T03:14:24.830Z,18.46
2018-06-10T03:15:33.733Z,18.42
2018-06-10T03:16:42.661Z,18.43
2018-06-10T03:17:51.305Z,18.41
2018-06-10T03:18:59.956Z,18.43
2018-06-10T03:20:08.595Z,18.41
2018-06-10T03:21:17.252Z,18.52
2018-06-10T03:22:25.897Z,18.52
2018-06-10T03:23:34.551Z,18.51
2018-06-10T03:24:43.189Z,18.53
2018-06-10T03:25:51.837Z,18.37
2018-06-10T03:27:00.489Z,18.55
2018-06-10T03:28:09.137Z,18.43
2018-06-10T03:29:18.056Z,18.53
2018-06-10T03:30:26.703Z,18.58
2018-06-10T03:31:35.364Z,18.53
2018-06-10T03:32:44.004Z,18.53
2018-06-10T03:33:52.661Z,18.51
2018-06-10T03:35:01.298Z,18.57
2018-06-10T03:36:09.949Z,18.52
2018-06-10T03:37:18.590Z,18.53
2018-06-10T03:38:27.244Z,18.42
2018-06-10T03:39:35.882Z,18.55
2018-06-10T03:40:44.533Z,18.57
2018-06-10T03:41:53.177Z,18.55
2018-06-10T03:43:01.835Z,18.53
2018-06-10T03:44:10.473Z,18.55
2018-06-10T03:45:19.117Z,18.63
2018-06-10T03:46:27.763Z,18.57
2018-06-10T03:47:36.678Z,18.63
2018-06-10T03:48:45.330Z,18.6
2018-06-10T03:49:54.238Z,18.57
2018-06-10T03:51:02.895Z,18.58
2018-06-10T03:52:11.799Z,18.6
2018-06-10T03:53:20.447Z,18.64
2018-06-10T03:54:29.101Z,18.57
2018-06-10T03:55:37.738Z,18.58
2018-06-10T03:56:46.400Z,18.52
2018-06-10T03:57:55.039Z,18.57
2018-06-10T03:59:03.688Z,18.51
2018-06-10T04:00:12.333Z,18.61
2018-06-10T04:01:20.984Z,18.53
2018-06-10T04:02:29.665Z,18.58
2018-06-10T04:03:38.271Z,18.61
2018-06-10T04:04:46.922Z,18.53
2018-06-10T04:05:55.824Z,18.67
2018-06-10T04:07:04.487Z,18.57
2018-06-10T04:08:13.395Z,18.58
2018-06-10T04:09:22.047Z,18.55
2018-06-10T04:10:30.684Z,18.57
2018-06-10T04:11:39.343Z,18.64
2018-06-10T04:12:47.982Z,18.58
2018-06-10T04:13:56.898Z,18.58
2018-06-10T04:15:05.536Z,18.55
2018-06-10T04:16:14.197Z,18.63
2018-06-10T04:17:22.841Z,18.55
2018-06-10T04:18:31.490Z,18.6
2018-06-10T04:19:40.128Z,18.57
2018-06-10T04:20:48.775Z,18.61
2018-06-10T04:21:57.434Z,18.58
2018-06-10T04:23:06.079Z,18.58
2018-06-10T04:24:14.994Z,18.57
2018-06-10T04:25:23.632Z,18.57
2018-06-10T04:26:32.286Z,18.57
2018-06-10T04:27:41.195Z,18.63
2018-06-10T04:28:49.856Z,18.57
2018-06-10T04:29:58.494Z,18.64
2018-06-10T04:31:07.147Z,18.58
2018-06-10T04:32:15.789Z,18.61
2018-06-10T04:33:24.446Z,18.63
2018-06-10T04:34:33.083Z,18.66
2018-06-10T04:35:41.998Z,18.68
2018-06-10T04:36:50.643Z,18.63
2018-06-10T04:37:59.298Z,18.71
2018-06-10T04:39:07.944Z,18.64
2018-06-10T04:40:16.587Z,18.67
2018-06-10T04:41:25.231Z,18.74
2018-06-10T04:42:33.877Z,18.66
2018-06-10T04:43:42.535Z,18.61
2018-06-10T04:44:51.178Z,18.68
2018-06-10T04:45:59.829Z,18.66
2018-06-10T04:47:08.523Z,18.64
2018-06-10T04:48:17.461Z,18.68
2018-06-10T04:49:26.368Z,18.63
2018-06-10T04:50:35.017Z,18.7
2018-06-10T04:51:43.659Z,18.7
2018-06-10T04:52:52.309Z,18.68
2018-06-10T04:54:00.957Z,18.64
2018-06-10T04:55:09.609Z,18.63
2018-06-10T04:56:18.254Z,18.66
2018-06-10T04:57:26.904Z,18.71
2018-06-10T04:58:35.552Z,18.73
2018-06-10T04:59:44.202Z,18.67
2018-06-10T05:00:52.850Z,18.73
2018-06-10T05:02:01.492Z,18.68
2018-06-10T05:03:10.404Z,18.76
2018-06-10T05:04:19.054Z,18.7
2018-06-10T05:05:27.705Z,18.68
2018-06-10T05:06:36.349Z,18.67
2018-06-10T05:07:45.297Z,18.67
2018-06-10T05:08:53.912Z,18.67
2018-06-10T05:10:02.561Z,18.73
2018-06-10T05:11:11.204Z,18.64
2018-06-10T05:12:19.854Z,18.63
2018-06-10T05:13:28.501Z,18.68
2018-06-10T05:14:37.153Z,18.68
2018-06-10T05:15:45.799Z,18.66
2018-06-10T05:16:54.447Z,18.63
2018-06-10T05:18:03.093Z,18.66
2018-06-10T05:19:12.003Z,18.66
2018-06-10T05:20:20.654Z,18.7
2018-06-10T05:21:29.303Z,18.76
2018-06-10T05:22:37.949Z,18.74
2018-06-10T05:23:46.595Z,18.73
2018-06-10T05:24:55.244Z,18.74
2018-06-10T05:26:04.167Z,18.74
2018-06-10T05:27:12.812Z,18.74
2018-06-10T05:28:21.457Z,18.74
2018-06-10T05:29:30.109Z,18.73
2018-06-10T05:30:39.014Z,18.71
2018-06-10T05:31:47.665Z,18.74
2018-06-10T05:32:56.311Z,18.76
2018-06-10T05:34:04.964Z,18.7
2018-06-10T05:35:13.618Z,18.78
2018-06-10T05:36:22.519Z,18.88
2018-06-10T05:37:31.168Z,18.71
2018-06-10T05:38:40.073Z,18.88
2018-06-10T05:39:48.721Z,18.85
2018-06-10T05:40:57.369Z,18.86
2018-06-10T05:42:06.024Z,18.86
2018-06-10T05:43:14.666Z,18.85
2018-06-10T05:44:23.312Z,18.82
2018-06-10T05:45:31.963Z,18.88
2018-06-10T05:46:40.617Z,18.98
2018-06-10T05:47:49.258Z,18.98
2018-06-10T05:48:57.906Z,18.92
2018-06-10T05:50:06.565Z,18.96
2018-06-10T05:51:15.524Z,18.91
2018-06-10T05:52:24.118Z,19.04
2018-06-10T05:53:32.774Z,18.98
2018-06-10T05:54:41.427Z,19.07
2018-06-10T05:55:50.072Z,19.08
2018-06-10T05:56:58.712Z,19.07
2018-06-10T05:58:07.364Z,19.04
2018-06-10T05:59:16.012Z,19.19
2018-06-10T06:00:24.965Z,19.01
2018-06-10T06:01:33.595Z,19.09
2018-06-10T06:02:42.250Z,19.05
2018-06-10T06:03:50.890Z,19.11
2018-06-10T06:04:59.547Z,19.09
2018-06-10T06:06:08.190Z,19.05
2018-06-10T06:07:16.844Z,19.22
2018-06-10T06:08:25.488Z,19.2
2018-06-10T06:09:34.143Z,19.16
2018-06-10T06:10:43.051Z,19.2
2018-06-10T06:11:51.694Z,19.19
2018-06-10T06:13:00.341Z,19.27
2018-06-10T06:14:09.245Z,19.11
2018-06-10T06:15:17.900Z,19.24
2018-06-10T06:16:26.544Z,19.2
2018-06-10T06:17:35.198Z,19.24
2018-06-10T06:18:43.837Z,19.23
2018-06-10T06:19:52.495Z,19.24
2018-06-10T06:21:01.400Z,19.3
2018-06-10T06:22:10.053Z,19.32
2018-06-10T06:23:18.692Z,19.39
2018-06-10T06:24:27.356Z,19.3
2018-06-10T06:25:36.002Z,19.3
2018-06-10T06:26:44.650Z,19.39
2018-06-10T06:27:53.292Z,19.35
2018-06-10T06:29:01.940Z,19.35
2018-06-10T06:30:10.593Z,19.3
2018-06-10T06:31:19.243Z,19.22
2018-06-10T06:32:27.899Z,19.27
2018-06-10T06:33:36.800Z,19.23
2018-06-10T06:34:45.456Z,19.26
2018-06-10T06:35:54.098Z,19.32
2018-06-10T06:37:03.020Z,19.37
2018-06-10T06:38:11.657Z,19.35
2018-06-10T06:39:20.316Z,19.27
2018-06-10T06:40:28.952Z,19.3
2018-06-10T06:41:37.615Z,19.32
2018-06-10T06:42:46.247Z,19.38
2018-06-10T06:43:55.157Z,19.42
2018-06-10T06:45:04.067Z,19.38
2018-06-10T06:46:12.724Z,19.35
2018-06-10T06:47:21.371Z,19.41
2018-06-10T06:48:30.017Z,19.41
2018-06-10T06:49:38.977Z,19.42
2018-06-10T06:50:47.624Z,19.44
2018-06-10T06:51:56.280Z,19.52
2018-06-10T06:53:04.927Z,19.47
2018-06-10T06:54:13.576Z,19.44
2018-06-10T06:55:22.481Z,19.55
2018-06-10T06:56:31.136Z,19.6
2018-06-10T06:57:39.787Z,19.67
2018-06-10T06:58:48.435Z,19.66
2018-06-10T06:59:57.077Z,19.62
2018-06-10T07:01:05.730Z,19.56
2018-06-10T07:02:14.377Z,19.6
2018-06-10T07:03:23.030Z,19.7
2018-06-10T07:04:31.673Z,19.72
2018-06-10T07:05:40.327Z,19.64
2018-06-10T07:06:48.975Z,19.74
2018-06-10T07:07:57.624Z,19.84
2018-06-10T07:09:06.275Z,19.82
2018-06-10T07:10:14.919Z,19.77
2018-06-10T07:11:23.569Z,19.84
2018-06-10T07:12:32.218Z,19.84
2018-06-10T07:13:40.871Z,19.94
2018-06-10T07:14:49.514Z,19.9
2018-06-10T07:15:58.164Z,19.9
2018-06-10T07:17:06.813Z,19.96
2018-06-10T07:18:15.737Z,20
2018-06-10T07:19:24.381Z,20.04
2018-06-10T07:20:33.034Z,20.03
2018-06-10T07:21:41.680Z,20.11
2018-06-10T07:22:50.332Z,20.12
2018-06-10T07:23:59.249Z,20.19
2018-06-10T07:25:07.897Z,20.14
2018-06-10T07:26:16.546Z,20.12
2018-06-10T07:27:25.193Z,20.17
2018-06-10T07:28:33.847Z,20.19
2018-06-10T07:29:42.492Z,20.24
2018-06-10T07:30:51.142Z,20.22
2018-06-10T07:31:59.785Z,20.21
2018-06-10T07:33:08.439Z,20.29
2018-06-10T07:34:17.089Z,20.36
2018-06-10T07:35:25.740Z,20.34
2018-06-10T07:36:34.387Z,20.44
2018-06-10T07:37:43.042Z,20.39
2018-06-10T07:38:51.693Z,20.4
2018-06-10T07:40:00.342Z,20.42
2018-06-10T07:41:09.252Z,20.55
2018-06-10T07:42:18.164Z,20.52
2018-06-10T07:43:26.814Z,20.59
2018-06-10T07:44:35.472Z,20.53
2018-06-10T07:45:44.403Z,20.6
2018-06-10T07:46:53.050Z,20.7
2018-06-10T07:48:01.712Z,20.8
2018-06-10T07:49:10.622Z,20.82
2018-06-10T07:50:19.272Z,20.78
2018-06-10T07:51:27.927Z,20.73
2018-06-10T07:52:36.581Z,20.74
2018-06-10T07:53:45.228Z,20.89
2018-06-10T07:54:54.145Z,20.88
2018-06-10T07:56:02.790Z,20.88
2018-06-10T07:57:11.438Z,20.86
2018-06-10T07:58:20.090Z,20.98
2018-06-10T07:59:28.735Z,21.1
2018-06-10T08:00:37.388Z,21.14
2018-06-10T08:01:46.042Z,21.14
2018-06-10T08:02:54.957Z,21.13
2018-06-10T08:04:03.607Z,21.32
2018-06-10T08:05:12.252Z,21.33
2018-06-10T08:06:20.902Z,21.41
2018-06-10T08:07:29.556Z,21.35
2018-06-10T08:08:38.210Z,21.43
2018-06-10T08:09:46.856Z,21.51
2018-06-10T08:10:55.506Z,21.62
2018-06-10T08:12:04.217Z,21.69
2018-06-10T08:13:12.815Z,21.66
2018-06-10T08:14:21.462Z,21.72
2018-06-10T08:15:30.116Z,21.78
2018-06-10T08:16:38.764Z,21.92
2018-06-10T08:17:47.419Z,21.83
2018-06-10T08:18:56.067Z,21.85
2018-06-10T08:20:04.719Z,21.81
2018-06-10T08:21:13.365Z,21.68
2018-06-10T08:22:22.015Z,21.66
2018-06-10T08:23:30.682Z,21.63
2018-06-10T08:24:39.327Z,21.69
2018-06-10T08:25:47.979Z,21.6
2018-06-10T08:26:56.887Z,21.56
2018-06-10T08:28:06.075Z,21.53
2018-06-10T08:29:14.730Z,21.53
2018-06-10T08:30:23.386Z,21.66
2018-06-10T08:31:32.295Z,21.62
2018-06-10T08:32:41.215Z,21.56
2018-06-10T08:33:49.864Z,21.48
2018-06-10T08:34:58.517Z,21.43
2018-06-10T08:36:07.164Z,21.48
2018-06-10T08:37:15.818Z,21.45
2018-06-10T08:38:24.468Z,21.47
2018-06-10T08:39:33.120Z,21.45
2018-06-10T08:40:41.772Z,21.51
2018-06-10T08:41:50.420Z,21.48
2018-06-10T08:42:59.072Z,21.48
2018-06-10T08:44:07.816Z,21.59
2018-06-10T08:45:16.377Z,21.65
2018-06-10T08:46:25.021Z,21.81
2018-06-10T08:47:33.678Z,21.75
2018-06-10T08:48:42.331Z,21.77
2018-06-10T08:49:50.992Z,21.7
2018-06-10T08:50:59.901Z,21.51
2018-06-10T08:52:08.563Z,21.56
2018-06-10T08:53:17.477Z,21.45
2018-06-10T08:54:26.139Z,21.54
2018-06-10T08:55:34.792Z,21.54
2018-06-10T08:56:43.443Z,21.58
2018-06-10T08:57:52.088Z,21.68
2018-06-10T08:59:00.738Z,21.69
2018-06-10T09:00:09.396Z,21.66
2018-06-10T09:01:18.042Z,21.69
2018-06-10T09:02:26.697Z,21.68
2018-06-10T09:03:35.340Z,21.7
2018-06-10T09:04:44.000Z,21.75
2018-06-10T09:05:52.650Z,21.85
2018-06-10T09:07:01.305Z,21.81
2018-06-10T09:08:09.961Z,21.88
2018-06-10T09:09:18.612Z,21.81
2018-06-10T09:10:27.262Z,21.81
2018-06-10T09:11:35.916Z,21.78
2018-06-10T09:12:44.558Z,21.89
2018-06-10T09:13:53.475Z,21.88
2018-06-10T09:15:02.134Z,21.94
2018-06-10T09:16:11.051Z,21.81
2018-06-10T09:17:19.704Z,21.78
2018-06-10T09:18:28.611Z,21.68
2018-06-10T09:19:37.267Z,21.69
2018-06-10T09:20:45.917Z,21.7
2018-06-10T09:21:54.580Z,21.75
2018-06-10T09:23:03.219Z,21.75
2018-06-10T09:24:11.874Z,21.75
2018-06-10T09:25:20.521Z,21.77
2018-06-10T09:26:29.180Z,21.74
2018-06-10T09:27:38.084Z,21.84
2018-06-10T09:28:47.043Z,21.91
2018-06-10T09:29:55.657Z,21.94
2018-06-10T09:31:04.593Z,22.03
2018-06-10T09:32:13.240Z,22.1
2018-06-10T09:33:21.886Z,22.16
2018-06-10T09:34:30.560Z,22.18
2018-06-10T09:35:39.187Z,22.23
2018-06-10T09:36:47.850Z,22.14
2018-06-10T09:37:56.501Z,22.16
2018-06-10T09:39:05.419Z,22.1
2018-06-10T09:40:14.068Z,22
2018-06-10T09:41:22.990Z,22
2018-06-10T09:42:31.638Z,22.06
2018-06-10T09:43:40.557Z,21.96
2018-06-10T09:44:49.202Z,21.99
2018-06-10T09:45:58.121Z,22.01
2018-06-10T09:47:06.771Z,22.12
2018-06-10T09:48:15.431Z,22.14
2018-06-10T09:49:24.079Z,22.14
2018-06-10T09:50:32.999Z,22.23
2018-06-10T09:51:41.651Z,22.22
2018-06-10T09:52:50.306Z,22.21
2018-06-10T09:53:58.961Z,22.21
2018-06-10T09:55:07.933Z,22.23
2018-06-10T09:56:16.889Z,22.18
2018-06-10T09:57:25.808Z,22.18
2018-06-10T09:58:34.462Z,22.18
2018-06-10T09:59:43.107Z,22.03
2018-06-10T10:00:51.760Z,21.89
2018-06-10T10:02:00.415Z,21.85
2018-06-10T10:03:09.071Z,21.88
2018-06-10T10:04:17.719Z,21.88
2018-06-10T10:05:26.637Z,21.91
2018-06-10T10:06:35.329Z,21.7
2018-06-10T10:07:43.942Z,21.75
2018-06-10T10:08:52.691Z,21.56
2018-06-10T10:10:01.240Z,21.56
2018-06-10T10:11:09.888Z,21.51
2018-06-10T10:12:18.537Z,21.54
2018-06-10T10:13:27.202Z,21.5
2018-06-10T10:14:36.213Z,21.56
2018-06-10T10:15:44.766Z,21.58
2018-06-10T10:16:53.420Z,21.59
2018-06-10T10:18:02.081Z,21.65
2018-06-10T10:19:10.731Z,21.59
2018-06-10T10:20:19.385Z,21.58
2018-06-10T10:21:28.032Z,21.59
2018-06-10T10:22:36.690Z,21.6
2018-06-10T10:23:45.338Z,21.62
2018-06-10T10:24:53.993Z,21.68
2018-06-10T10:26:02.636Z,21.66
2018-06-10T10:27:11.295Z,21.72
2018-06-10T10:28:20.212Z,21.77
2018-06-10T10:29:28.867Z,21.85
2018-06-10T10:30:37.520Z,21.91
2018-06-10T10:31:46.431Z,21.84
2018-06-10T10:32:55.347Z,22
2018-06-10T10:34:04.260Z,22.01
2018-06-10T10:35:12.917Z,21.99
2018-06-10T10:36:21.565Z,22.01
2018-06-10T10:37:30.215Z,21.96
2018-06-10T10:38:38.925Z,21.91
2018-06-10T10:39:47.528Z,22.06
2018-06-10T10:40:56.174Z,22.06
2018-06-10T10:42:04.829Z,21.97
2018-06-10T10:43:13.476Z,21.97
2018-06-10T10:44:22.135Z,22.01
2018-06-10T10:45:31.049Z,22.06
2018-06-10T10:46:39.693Z,22.04
2018-06-10T10:47:48.342Z,22.18
2018-06-10T10:48:57.047Z,22.31
2018-06-10T10:50:05.653Z,22.47
2018-06-10T10:51:14.302Z,22.61
2018-06-10T10:52:22.960Z,22.61
2018-06-10T10:53:31.603Z,22.58
2018-06-10T10:54:40.264Z,22.58
2018-06-10T10:55:48.910Z,22.58
2018-06-10T10:56:57.567Z,22.53
2018-06-10T10:58:06.221Z,22.58
2018-06-10T10:59:14.883Z,22.62
2018-06-10T11:00:23.535Z,22.77
2018-06-10T11:01:32.189Z,22.7
2018-06-10T11:02:40.836Z,22.73
2018-06-10T11:03:49.491Z,22.74
2018-06-10T11:04:58.149Z,22.8
2018-06-10T11:06:06.809Z,22.71
2018-06-10T11:07:15.461Z,22.58
2018-06-10T11:08:24.375Z,22.49
2018-06-10T11:09:33.031Z,22.43
2018-06-10T11:10:41.684Z,22.56
2018-06-10T11:11:50.607Z,22.58
2018-06-10T11:12:59.249Z,22.59
2018-06-10T11:14:07.907Z,22.67
2018-06-10T11:15:16.556Z,22.62
2018-06-10T11:16:25.219Z,22.59
2018-06-10T11:17:34.124Z,22.52
2018-06-10T11:18:43.045Z,22.47
2018-06-10T11:19:51.694Z,22.4
2018-06-10T11:21:00.356Z,22.46
2018-06-10T11:22:09.005Z,22.37
2018-06-10T11:23:17.658Z,22.38
2018-06-10T11:24:26.312Z,22.46
2018-06-10T11:25:35.221Z,22.47
2018-06-10T11:26:43.885Z,22.36
2018-06-10T11:27:52.530Z,22.36
2018-06-10T11:29:01.452Z,22.46
2018-06-10T11:30:10.095Z,22.49
2018-06-10T11:31:18.755Z,22.46
2018-06-10T11:32:27.401Z,22.41
2018-06-10T11:33:36.060Z,22.37
2018-06-10T11:34:44.704Z,22.25
2018-06-10T11:35:53.369Z,22.18
2018-06-10T11:37:02.016Z,22.31
2018-06-10T11:38:10.948Z,22.41
2018-06-10T11:39:19.855Z,22.51
2018-06-10T11:40:28.769Z,22.46
2018-06-10T11:41:37.428Z,22.52
2018-06-10T11:42:46.077Z,22.58
2018-06-10T11:43:54.989Z,22.74
2018-06-10T11:45:03.917Z,22.93
2018-06-10T11:46:12.562Z,22.99
2018-06-10T11:47:21.216Z,23.11
2018-06-10T11:48:29.867Z,23.2
2018-06-10T11:49:38.520Z,23.33
2018-06-10T11:50:47.171Z,23.42
2018-06-10T11:51:55.862Z,23.49
2018-06-10T11:53:04.481Z,23.45
2018-06-10T11:54:13.145Z,23.4
2018-06-10T11:55:21.799Z,23.18
2018-06-10T11:56:30.453Z,23.17
2018-06-10T11:57:39.099Z,23.1
2018-06-10T11:58:48.016Z,22.99
2018-06-10T11:59:56.940Z,22.96
2018-06-10T12:01:05.599Z,22.86
2018-06-10T12:02:14.253Z,22.92
2018-06-10T12:03:22.898Z,22.93
2018-06-10T12:04:31.555Z,23.14
2018-06-10T12:05:40.206Z,23.28
2018-06-10T12:06:48.867Z,23.28
2018-06-10T12:07:57.562Z,23.34
2018-06-10T12:09:06.171Z,23.32
2018-06-10T12:10:14.820Z,23.32
2018-06-10T12:11:23.741Z,23.21
2018-06-10T12:12:32.384Z,23.21
2018-06-10T12:13:41.098Z,23.23
2018-06-10T12:14:49.694Z,23.29
2018-06-10T12:15:58.357Z,23.16
2018-06-10T12:17:07.009Z,23.29
2018-06-10T12:18:15.924Z,23.37
2018-06-10T12:19:24.577Z,23.36
2018-06-10T12:20:33.748Z,23.25
2018-06-10T12:21:42.411Z,23.37
2018-06-10T12:22:51.188Z,23.47
2018-06-10T12:23:59.716Z,23.48
2018-06-10T12:25:08.359Z,23.51
2018-06-10T12:26:17.024Z,23.67
2018-06-10T12:27:25.668Z,23.81
2018-06-10T12:28:34.329Z,23.84
2018-06-10T12:29:42.973Z,23.74
2018-06-10T12:30:51.636Z,23.94
2018-06-10T12:32:00.552Z,23.85
2018-06-10T12:33:09.210Z,23.89
2018-06-10T12:34:18.117Z,23.96
2018-06-10T12:35:26.773Z,23.88
2018-06-10T12:36:35.429Z,23.99
2018-06-10T12:37:44.090Z,23.74
2018-06-10T12:38:52.745Z,23.81
2018-06-10T12:40:01.398Z,23.73
2018-06-10T12:41:10.047Z,23.81
2018-06-10T12:42:18.970Z,23.77
2018-06-10T12:43:27.634Z,23.66
2018-06-10T12:44:36.283Z,23.7
2018-06-10T12:45:44.937Z,23.66
2018-06-10T12:46:53.596Z,23.69
2018-06-10T12:48:02.247Z,23.66
2018-06-10T12:49:10.992Z,23.79
2018-06-10T12:50:19.553Z,23.73
2018-06-10T12:51:28.465Z,23.85
2018-06-10T12:52:37.122Z,24.03
2018-06-10T12:53:45.772Z,23.92
2018-06-10T12:54:54.428Z,24.01
2018-06-10T12:56:03.080Z,24.04
2018-06-10T12:57:11.732Z,23.99
2018-06-10T12:58:20.388Z,23.96
2018-06-10T12:59:29.041Z,23.91
2018-06-10T13:00:37.694Z,23.96
2018-06-10T13:01:46.348Z,23.91
2018-06-10T13:02:55.542Z,24.03
2018-06-10T13:04:04.197Z,23.99
2018-06-10T13:05:12.851Z,23.88
2018-06-10T13:06:21.501Z,23.86
2018-06-10T13:07:30.159Z,23.81
2018-06-10T13:08:38.812Z,23.74
2018-06-10T13:09:47.467Z,23.69
2018-06-10T13:10:56.132Z,23.63
2018-06-10T13:12:04.796Z,23.66
2018-06-10T13:13:13.713Z,23.73
2018-06-10T13:14:22.367Z,23.85
2018-06-10T13:15:31.026Z,24.07
2018-06-10T13:16:39.673Z,24.13
2018-06-10T13:17:48.329Z,24.21
2018-06-10T13:18:56.980Z,24.32
2018-06-10T13:20:05.638Z,24.59
2018-06-10T13:21:14.287Z,24.58
2018-06-10T13:22:22.941Z,24.53
2018-06-10T13:23:32.122Z,24.48
2018-06-10T13:24:40.780Z,24.53
2018-06-10T13:25:49.424Z,24.43
2018-06-10T13:26:58.078Z,24.47
2018-06-10T13:28:06.773Z,24.46
2018-06-10T13:29:15.387Z,24.41
2018-06-10T13:30:24.039Z,24.46
2018-06-10T13:31:32.693Z,24.4
2018-06-10T13:32:41.346Z,24.41
2018-06-10T13:33:50.022Z,24.43
2018-06-10T13:34:58.659Z,24.41
2018-06-10T13:36:07.320Z,24.46
2018-06-10T13:37:16.242Z,24.43
2018-06-10T13:38:24.890Z,24.55
2018-06-10T13:39:33.548Z,24.62
2018-06-10T13:40:42.201Z,24.74
2018-06-10T13:41:50.855Z,24.69
2018-06-10T13:42:59.506Z,24.81
2018-06-10T13:44:08.431Z,24.84
2018-06-10T13:45:17.082Z,24.79
2018-06-10T13:46:25.740Z,24.77
2018-06-10T13:47:34.658Z,24.78
2018-06-10T13:48:43.316Z,24.71
2018-06-10T13:49:52.234Z,24.74
2018-06-10T13:51:01.169Z,24.71
2018-06-10T13:52:10.098Z,24.82
2018-06-10T13:53:18.754Z,24.88
2018-06-10T13:54:27.406Z,24.94
2018-06-10T13:55:36.065Z,25.03
2018-06-10T13:56:45.247Z,25.12
2018-06-10T13:57:53.895Z,25
2018-06-10T13:59:02.548Z,24.97
2018-06-10T14:00:11.208Z,25.03
2018-06-10T14:01:20.126Z,24.92
2018-06-10T14:02:29.051Z,24.99
2018-06-10T14:03:37.707Z,24.77
2018-06-10T14:04:46.357Z,24.71
2018-06-10T14:05:55.011Z,24.74
2018-06-10T14:07:03.664Z,24.66
2018-06-10T14:08:12.316Z,24.75
2018-06-10T14:09:20.969Z,24.69
2018-06-10T14:10:29.890Z,24.65
2018-06-10T14:11:38.547Z,24.51
2018-06-10T14:12:47.200Z,24.38
2018-06-10T14:13:55.856Z,24.53
2018-06-10T14:15:04.510Z,24.55
2018-06-10T14:16:13.163Z,24.51
2018-06-10T14:17:21.821Z,24.55
2018-06-10T14:18:30.738Z,24.46
2018-06-10T14:19:39.387Z,24.38
2018-06-10T14:20:48.576Z,24.28
2018-06-10T14:21:57.229Z,24.46
2018-06-10T14:23:05.884Z,24.4
2018-06-10T14:24:14.537Z,24.41
2018-06-10T14:25:23.449Z,24.43
2018-06-10T14:26:32.107Z,24.46
2018-06-10T14:27:41.300Z,24.48
2018-06-10T14:28:49.960Z,24.63
2018-06-10T14:29:58.607Z,24.68
2018-06-10T14:31:07.532Z,24.71
2018-06-10T14:32:16.187Z,24.71
2018-06-10T14:33:24.849Z,24.89
2018-06-10T14:34:33.758Z,24.84
2018-06-10T14:35:42.412Z,24.85
2018-06-10T14:36:51.063Z,24.84
2018-06-10T14:37:59.792Z,24.89
2018-06-10T14:39:08.368Z,25
2018-06-10T14:40:17.293Z,25.03
2018-06-10T14:41:25.941Z,25.11
2018-06-10T14:42:34.603Z,25.12
2018-06-10T14:43:43.254Z,25.22
2018-06-10T14:44:51.901Z,25.16
2018-06-10T14:46:00.556Z,25.01
2018-06-10T14:47:09.205Z,25.03
2018-06-10T14:48:17.867Z,24.96